sensor_id;sensor_type;location;lat;lon;timestamp;P1;durP1;ratioP1;P2;durP2;ratioP2
17424;SDS011;8830;50.978;5.058;2022-08-30T00:00:09;8.40;;;4.20;;
17424;SDS011;8830;50.978;5.058;2022-08-30T00:02:57;7.53;;;4.90;;
17424;SDS011;8830;50.978;5.058;2022-08-30T00:05:26;5.13;;;4.50;;
17424;SDS011;8830;50.978;5.058;2022-08-30T00:07:53;9.03;;;5.37;;
17424;SDS011;8830;50.978;5.058;2022-08-30T00:10:20;6.77;;;4.63;;
17424;SDS011;8830;50.978;5.058;2022-08-30T00:12:47;7.00;;;4.97;;
17424;SDS011;8830;50.978;5.058;2022-08-30T00:15:14;7.33;;;4.80;;
17424;SDS011;8830;50.978;5.058;2022-08-30T00:17:43;5.60;;;5.10;;
17424;SDS011;8830;50.978;5.058;2022-08-30T00:20:12;8.83;;;5.10;;
17424;SDS011;8830;50.978;5.058;2022-08-30T00:22:42;6.13;;;5.50;;
17424;SDS011;8830;50.978;5.058;2022-08-30T00:25:09;7.67;;;5.73;;
17424;SDS011;8830;50.978;5.058;2022-08-30T00:27:37;12.30;;;6.40;;
17424;SDS011;8830;50.978;5.058;2022-08-30T00:30:06;5.97;;;5.07;;
17424;SDS011;8830;50.978;5.058;2022-08-30T00:32:34;7.03;;;5.80;;
17424;SDS011;8830;50.978;5.058;2022-08-30T00:35:02;5.90;;;5.30;;
17424;SDS011;8830;50.978;5.058;2022-08-30T00:37:32;11.03;;;7.03;;
17424;SDS011;8830;50.978;5.058;2022-08-30T00:39:59;7.77;;;6.10;;
17424;SDS011;8830;50.978;5.058;2022-08-30T00:42:26;10.60;;;6.40;;
17424;SDS011;8830;50.978;5.058;2022-08-30T00:44:54;10.00;;;6.80;;
17424;SDS011;8830;50.978;5.058;2022-08-30T00:47:27;13.73;;;6.63;;
17424;SDS011;8830;50.978;5.058;2022-08-30T00:49:54;8.33;;;6.90;;
17424;SDS011;8830;50.978;5.058;2022-08-30T00:52:23;7.90;;;6.60;;
17424;SDS011;8830;50.978;5.058;2022-08-30T00:54:52;8.07;;;6.20;;
17424;SDS011;8830;50.978;5.058;2022-08-30T00:57:19;10.23;;;6.63;;
17424;SDS011;8830;50.978;5.058;2022-08-30T00:59:46;6.20;;;5.60;;
17424;SDS011;8830;50.978;5.058;2022-08-30T01:02:16;8.60;;;5.90;;
17424;SDS011;8830;50.978;5.058;2022-08-30T01:04:47;7.03;;;5.53;;
17424;SDS011;8830;50.978;5.058;2022-08-30T01:07:16;9.47;;;5.73;;
17424;SDS011;8830;50.978;5.058;2022-08-30T01:09:44;7.90;;;5.70;;
17424;SDS011;8830;50.978;5.058;2022-08-30T01:12:13;6.03;;;5.43;;
17424;SDS011;8830;50.978;5.058;2022-08-30T01:14:40;9.97;;;5.97;;
17424;SDS011;8830;50.978;5.058;2022-08-30T01:17:07;14.77;;;5.80;;
17424;SDS011;8830;50.978;5.058;2022-08-30T01:19:37;6.90;;;6.03;;
17424;SDS011;8830;50.978;5.058;2022-08-30T01:22:09;7.87;;;6.07;;
17424;SDS011;8830;50.978;5.058;2022-08-30T01:24:45;9.77;;;5.90;;
17424;SDS011;8830;50.978;5.058;2022-08-30T01:27:14;7.27;;;6.33;;
17424;SDS011;8830;50.978;5.058;2022-08-30T01:29:42;13.23;;;6.20;;
17424;SDS011;8830;50.978;5.058;2022-08-30T01:32:14;7.10;;;6.10;;
17424;SDS011;8830;50.978;5.058;2022-08-30T01:34:43;11.97;;;6.50;;
17424;SDS011;8830;50.978;5.058;2022-08-30T01:37:13;9.57;;;6.80;;
17424;SDS011;8830;50.978;5.058;2022-08-30T01:39:40;15.07;;;7.57;;
17424;SDS011;8830;50.978;5.058;2022-08-30T01:42:12;13.30;;;8.27;;
17424;SDS011;8830;50.978;5.058;2022-08-30T01:44:42;12.87;;;9.40;;
17424;SDS011;8830;50.978;5.058;2022-08-30T01:47:09;11.80;;;9.73;;
17424;SDS011;8830;50.978;5.058;2022-08-30T01:49:37;14.20;;;9.87;;
17424;SDS011;8830;50.978;5.058;2022-08-30T01:52:06;12.23;;;11.03;;
17424;SDS011;8830;50.978;5.058;2022-08-30T01:54:34;16.53;;;11.80;;
17424;SDS011;8830;50.978;5.058;2022-08-30T01:57:03;14.70;;;12.33;;
17424;SDS011;8830;50.978;5.058;2022-08-30T01:59:32;13.10;;;11.77;;
17424;SDS011;8830;50.978;5.058;2022-08-30T02:01:59;12.97;;;11.57;;
17424;SDS011;8830;50.978;5.058;2022-08-30T02:04:27;15.77;;;12.33;;
17424;SDS011;8830;50.978;5.058;2022-08-30T02:06:54;14.83;;;13.23;;
17424;SDS011;8830;50.978;5.058;2022-08-30T02:09:21;17.00;;;12.73;;
17424;SDS011;8830;50.978;5.058;2022-08-30T02:11:49;14.90;;;11.10;;
17424;SDS011;8830;50.978;5.058;2022-08-30T02:14:16;14.23;;;12.87;;
17424;SDS011;8830;50.978;5.058;2022-08-30T02:16:44;15.00;;;11.97;;
17424;SDS011;8830;50.978;5.058;2022-08-30T02:19:12;15.20;;;11.87;;
17424;SDS011;8830;50.978;5.058;2022-08-30T02:21:40;16.80;;;12.13;;
17424;SDS011;8830;50.978;5.058;2022-08-30T02:24:08;16.57;;;11.87;;
17424;SDS011;8830;50.978;5.058;2022-08-30T02:26:35;14.90;;;12.13;;
17424;SDS011;8830;50.978;5.058;2022-08-30T02:29:02;17.47;;;11.73;;
17424;SDS011;8830;50.978;5.058;2022-08-30T02:31:31;13.23;;;11.23;;
17424;SDS011;8830;50.978;5.058;2022-08-30T02:34:00;14.40;;;11.73;;
17424;SDS011;8830;50.978;5.058;2022-08-30T02:36:28;15.27;;;11.30;;
17424;SDS011;8830;50.978;5.058;2022-08-30T02:38:56;16.30;;;11.33;;
17424;SDS011;8830;50.978;5.058;2022-08-30T02:41:25;12.93;;;11.77;;
17424;SDS011;8830;50.978;5.058;2022-08-30T02:43:52;16.20;;;11.90;;
17424;SDS011;8830;50.978;5.058;2022-08-30T02:46:22;19.67;;;11.30;;
17424;SDS011;8830;50.978;5.058;2022-08-30T02:48:49;11.87;;;9.73;;
17424;SDS011;8830;50.978;5.058;2022-08-30T02:51:18;13.40;;;10.40;;
17424;SDS011;8830;50.978;5.058;2022-08-30T02:53:45;10.73;;;9.10;;
17424;SDS011;8830;50.978;5.058;2022-08-30T02:56:13;10.23;;;9.20;;
17424;SDS011;8830;50.978;5.058;2022-08-30T02:58:40;9.67;;;8.77;;
17424;SDS011;8830;50.978;5.058;2022-08-30T03:01:09;13.23;;;9.60;;
17424;SDS011;8830;50.978;5.058;2022-08-30T03:03:38;11.33;;;8.50;;
17424;SDS011;8830;50.978;5.058;2022-08-30T03:06:06;9.47;;;7.93;;
17424;SDS011;8830;50.978;5.058;2022-08-30T03:08:37;11.43;;;7.73;;
17424;SDS011;8830;50.978;5.058;2022-08-30T03:11:04;12.07;;;8.07;;
17424;SDS011;8830;50.978;5.058;2022-08-30T03:13:31;10.00;;;7.57;;
17424;SDS011;8830;50.978;5.058;2022-08-30T03:15:58;9.97;;;7.63;;
17424;SDS011;8830;50.978;5.058;2022-08-30T03:18:25;9.43;;;7.47;;
17424;SDS011;8830;50.978;5.058;2022-08-30T03:20:52;11.07;;;7.47;;
17424;SDS011;8830;50.978;5.058;2022-08-30T03:23:19;12.27;;;7.77;;
17424;SDS011;8830;50.978;5.058;2022-08-30T03:25:48;7.30;;;6.60;;
17424;SDS011;8830;50.978;5.058;2022-08-30T03:28:15;10.57;;;6.83;;
17424;SDS011;8830;50.978;5.058;2022-08-30T03:30:42;8.20;;;6.73;;
17424;SDS011;8830;50.978;5.058;2022-08-30T03:33:09;6.97;;;6.27;;
17424;SDS011;8830;50.978;5.058;2022-08-30T03:35:36;11.97;;;7.07;;
17424;SDS011;8830;50.978;5.058;2022-08-30T03:38:03;7.40;;;6.70;;
17424;SDS011;8830;50.978;5.058;2022-08-30T03:40:31;7.47;;;6.47;;
17424;SDS011;8830;50.978;5.058;2022-08-30T03:42:59;7.80;;;6.90;;
17424;SDS011;8830;50.978;5.058;2022-08-30T03:45:26;12.47;;;6.33;;
17424;SDS011;8830;50.978;5.058;2022-08-30T03:47:54;9.17;;;6.87;;
17424;SDS011;8830;50.978;5.058;2022-08-30T03:50:21;12.83;;;6.90;;
17424;SDS011;8830;50.978;5.058;2022-08-30T03:52:50;7.60;;;6.40;;
17424;SDS011;8830;50.978;5.058;2022-08-30T03:55:17;8.47;;;6.73;;
17424;SDS011;8830;50.978;5.058;2022-08-30T03:57:44;11.53;;;6.70;;
17424;SDS011;8830;50.978;5.058;2022-08-30T04:00:14;9.13;;;6.30;;
17424;SDS011;8830;50.978;5.058;2022-08-30T04:02:44;11.23;;;6.67;;
17424;SDS011;8830;50.978;5.058;2022-08-30T04:05:11;7.33;;;6.13;;
17424;SDS011;8830;50.978;5.058;2022-08-30T04:07:38;9.33;;;6.37;;
17424;SDS011;8830;50.978;5.058;2022-08-30T04:10:07;7.63;;;6.57;;
17424;SDS011;8830;50.978;5.058;2022-08-30T04:12:35;8.03;;;6.23;;
17424;SDS011;8830;50.978;5.058;2022-08-30T04:15:02;7.00;;;6.30;;
17424;SDS011;8830;50.978;5.058;2022-08-30T04:17:31;8.43;;;6.33;;
17424;SDS011;8830;50.978;5.058;2022-08-30T04:20:08;7.80;;;6.40;;
17424;SDS011;8830;50.978;5.058;2022-08-30T04:22:37;10.97;;;7.00;;
17424;SDS011;8830;50.978;5.058;2022-08-30T04:25:04;7.30;;;6.60;;
17424;SDS011;8830;50.978;5.058;2022-08-30T04:27:32;7.87;;;6.67;;
17424;SDS011;8830;50.978;5.058;2022-08-30T04:30:02;7.23;;;6.33;;
17424;SDS011;8830;50.978;5.058;2022-08-30T04:32:34;8.97;;;6.53;;
17424;SDS011;8830;50.978;5.058;2022-08-30T04:35:02;8.33;;;6.80;;
17424;SDS011;8830;50.978;5.058;2022-08-30T04:37:30;8.37;;;6.70;;
17424;SDS011;8830;50.978;5.058;2022-08-30T04:39:57;7.17;;;6.37;;
17424;SDS011;8830;50.978;5.058;2022-08-30T04:42:25;8.80;;;7.20;;
17424;SDS011;8830;50.978;5.058;2022-08-30T04:44:56;9.13;;;6.50;;
17424;SDS011;8830;50.978;5.058;2022-08-30T04:47:28;7.40;;;6.70;;
17424;SDS011;8830;50.978;5.058;2022-08-30T04:49:56;6.97;;;6.30;;
17424;SDS011;8830;50.978;5.058;2022-08-30T04:52:27;7.80;;;7.10;;
17424;SDS011;8830;50.978;5.058;2022-08-30T04:54:58;7.50;;;6.80;;
17424;SDS011;8830;50.978;5.058;2022-08-30T04:57:26;7.40;;;6.50;;
17424;SDS011;8830;50.978;5.058;2022-08-30T04:59:54;10.20;;;7.00;;
17424;SDS011;8830;50.978;5.058;2022-08-30T05:02:21;7.77;;;6.43;;
17424;SDS011;8830;50.978;5.058;2022-08-30T05:04:49;6.57;;;5.87;;
17424;SDS011;8830;50.978;5.058;2022-08-30T05:07:34;7.97;;;6.60;;
17424;SDS011;8830;50.978;5.058;2022-08-30T05:10:02;7.43;;;6.70;;
17424;SDS011;8830;50.978;5.058;2022-08-30T05:12:32;9.53;;;6.57;;
17424;SDS011;8830;50.978;5.058;2022-08-30T05:14:59;7.33;;;6.47;;
17424;SDS011;8830;50.978;5.058;2022-08-30T05:17:27;10.70;;;6.50;;
17424;SDS011;8830;50.978;5.058;2022-08-30T05:19:59;7.07;;;5.90;;
17424;SDS011;8830;50.978;5.058;2022-08-30T05:22:26;6.80;;;6.20;;
17424;SDS011;8830;50.978;5.058;2022-08-30T05:24:55;6.80;;;6.20;;
17424;SDS011;8830;50.978;5.058;2022-08-30T05:27:24;6.73;;;6.13;;
17424;SDS011;8830;50.978;5.058;2022-08-30T05:29:54;7.07;;;6.13;;
17424;SDS011;8830;50.978;5.058;2022-08-30T05:32:22;7.13;;;6.03;;
17424;SDS011;8830;50.978;5.058;2022-08-30T05:34:49;6.83;;;6.33;;
17424;SDS011;8830;50.978;5.058;2022-08-30T05:37:22;7.40;;;6.03;;
17424;SDS011;8830;50.978;5.058;2022-08-30T05:39:50;10.43;;;6.57;;
17424;SDS011;8830;50.978;5.058;2022-08-30T05:42:21;6.53;;;5.83;;
17424;SDS011;8830;50.978;5.058;2022-08-30T05:44:50;6.80;;;6.20;;
17424;SDS011;8830;50.978;5.058;2022-08-30T05:47:20;7.67;;;6.87;;
17424;SDS011;8830;50.978;5.058;2022-08-30T05:49:48;7.00;;;6.40;;
17424;SDS011;8830;50.978;5.058;2022-08-30T05:52:15;6.53;;;5.93;;
17424;SDS011;8830;50.978;5.058;2022-08-30T05:54:42;6.00;;;5.50;;
17424;SDS011;8830;50.978;5.058;2022-08-30T05:57:10;7.47;;;5.50;;
17424;SDS011;8830;50.978;5.058;2022-08-30T05:59:38;9.23;;;6.30;;
17424;SDS011;8830;50.978;5.058;2022-08-30T06:02:05;7.47;;;6.00;;
17424;SDS011;8830;50.978;5.058;2022-08-30T06:04:32;7.57;;;5.93;;
17424;SDS011;8830;50.978;5.058;2022-08-30T06:07:01;9.07;;;5.70;;
17424;SDS011;8830;50.978;5.058;2022-08-30T06:09:30;6.30;;;5.70;;
17424;SDS011;8830;50.978;5.058;2022-08-30T06:11:59;6.77;;;5.80;;
17424;SDS011;8830;50.978;5.058;2022-08-30T06:14:28;7.43;;;5.27;;
17424;SDS011;8830;50.978;5.058;2022-08-30T06:17:01;6.15;;;5.30;;
17424;SDS011;8830;50.978;5.058;2022-08-30T06:19:30;6.60;;;5.93;;
17424;SDS011;8830;50.978;5.058;2022-08-30T06:21:58;12.23;;;4.90;;
17424;SDS011;8830;50.978;5.058;2022-08-30T06:24:28;5.72;;;4.45;;
17424;SDS011;8830;50.978;5.058;2022-08-30T06:26:57;6.47;;;5.05;;
17424;SDS011;8830;50.978;5.058;2022-08-30T06:29:24;8.05;;;4.45;;
17424;SDS011;8830;50.978;5.058;2022-08-30T06:31:51;4.88;;;4.45;;
17424;SDS011;8830;50.978;5.058;2022-08-30T06:34:20;5.38;;;4.88;;
17424;SDS011;8830;50.978;5.058;2022-08-30T06:36:53;6.53;;;4.57;;
17424;SDS011;8830;50.978;5.058;2022-08-30T06:39:22;5.18;;;4.78;;
17424;SDS011;8830;50.978;5.058;2022-08-30T06:41:49;5.68;;;5.05;;
17424;SDS011;8830;50.978;5.058;2022-08-30T06:44:16;5.32;;;4.80;;
17424;SDS011;8830;50.978;5.058;2022-08-30T06:46:44;9.15;;;4.50;;
17424;SDS011;8830;50.978;5.058;2022-08-30T06:49:12;7.75;;;4.55;;
17424;SDS011;8830;50.978;5.058;2022-08-30T06:51:42;6.43;;;4.30;;
17424;SDS011;8830;50.978;5.058;2022-08-30T06:54:10;7.07;;;5.20;;
17424;SDS011;8830;50.978;5.058;2022-08-30T06:56:46;7.63;;;4.60;;
17424;SDS011;8830;50.978;5.058;2022-08-30T07:01:45;5.85;;;4.45;;
17424;SDS011;8830;50.978;5.058;2022-08-30T07:04:14;5.20;;;4.70;;
17424;SDS011;8830;50.978;5.058;2022-08-30T07:06:44;6.78;;;4.72;;
17424;SDS011;8830;50.978;5.058;2022-08-30T07:09:15;6.93;;;4.90;;
17424;SDS011;8830;50.978;5.058;2022-08-30T07:11:43;5.68;;;4.47;;
17424;SDS011;8830;50.978;5.058;2022-08-30T07:14:11;5.10;;;4.13;;
17424;SDS011;8830;50.978;5.058;2022-08-30T07:16:42;6.10;;;4.28;;
17424;SDS011;8830;50.978;5.058;2022-08-30T07:19:10;7.40;;;4.35;;
17424;SDS011;8830;50.978;5.058;2022-08-30T07:21:38;6.28;;;4.07;;
17424;SDS011;8830;50.978;5.058;2022-08-30T07:24:11;5.95;;;4.40;;
17424;SDS011;8830;50.978;5.058;2022-08-30T07:26:42;7.05;;;4.65;;
17424;SDS011;8830;50.978;5.058;2022-08-30T07:29:10;5.20;;;4.28;;
17424;SDS011;8830;50.978;5.058;2022-08-30T07:31:39;4.25;;;3.95;;
17424;SDS011;8830;50.978;5.058;2022-08-30T07:34:10;4.60;;;4.20;;
17424;SDS011;8830;50.978;5.058;2022-08-30T07:36:44;5.93;;;4.47;;
17424;SDS011;8830;50.978;5.058;2022-08-30T07:39:14;6.00;;;4.60;;
17424;SDS011;8830;50.978;5.058;2022-08-30T07:41:42;4.72;;;4.22;;
17424;SDS011;8830;50.978;5.058;2022-08-30T07:44:11;5.28;;;4.32;;
17424;SDS011;8830;50.978;5.058;2022-08-30T07:46:38;6.22;;;4.70;;
17424;SDS011;8830;50.978;5.058;2022-08-30T07:49:07;4.60;;;4.20;;
17424;SDS011;8830;50.978;5.058;2022-08-30T07:51:36;6.20;;;4.30;;
17424;SDS011;8830;50.978;5.058;2022-08-30T07:54:10;5.72;;;4.30;;
17424;SDS011;8830;50.978;5.058;2022-08-30T07:56:39;4.70;;;4.05;;
17424;SDS011;8830;50.978;5.058;2022-08-30T07:59:07;5.22;;;4.00;;
17424;SDS011;8830;50.978;5.058;2022-08-30T08:01:35;3.92;;;3.55;;
17424;SDS011;8830;50.978;5.058;2022-08-30T08:04:03;4.70;;;3.65;;
17424;SDS011;8830;50.978;5.058;2022-08-30T08:06:37;6.88;;;4.13;;
17424;SDS011;8830;50.978;5.058;2022-08-30T08:09:04;4.00;;;3.60;;
17424;SDS011;8830;50.978;5.058;2022-08-30T08:11:32;5.82;;;3.83;;
17424;SDS011;8830;50.978;5.058;2022-08-30T08:14:02;7.25;;;3.53;;
17424;SDS011;8830;50.978;5.058;2022-08-30T08:16:34;5.25;;;4.43;;
17424;SDS011;8830;50.978;5.058;2022-08-30T08:19:03;3.80;;;3.50;;
17424;SDS011;8830;50.978;5.058;2022-08-30T08:21:33;4.57;;;3.80;;
17424;SDS011;8830;50.978;5.058;2022-08-30T08:26:32;3.85;;;3.55;;
17424;SDS011;8830;50.978;5.058;2022-08-30T08:29:02;4.22;;;3.83;;
17424;SDS011;8830;50.978;5.058;2022-08-30T08:31:31;4.15;;;3.53;;
17424;SDS011;8830;50.978;5.058;2022-08-30T08:33:59;5.60;;;3.60;;
17424;SDS011;8830;50.978;5.058;2022-08-30T08:36:29;4.57;;;3.65;;
17424;SDS011;8830;50.978;5.058;2022-08-30T08:38:57;4.00;;;3.70;;
17424;SDS011;8830;50.978;5.058;2022-08-30T08:41:29;3.83;;;3.53;;
17424;SDS011;8830;50.978;5.058;2022-08-30T08:44:05;4.03;;;2.90;;
17424;SDS011;8830;50.978;5.058;2022-08-30T08:46:41;4.30;;;3.90;;
17424;SDS011;8830;50.978;5.058;2022-08-30T08:49:15;4.90;;;3.60;;
17424;SDS011;8830;50.978;5.058;2022-08-30T08:51:42;6.72;;;4.32;;
17424;SDS011;8830;50.978;5.058;2022-08-30T08:54:29;4.97;;;3.30;;
17424;SDS011;8830;50.978;5.058;2022-08-30T08:57:02;5.85;;;3.65;;
17424;SDS011;8830;50.978;5.058;2022-08-30T08:59:32;5.03;;;3.47;;
17424;SDS011;8830;50.978;5.058;2022-08-30T09:04:44;4.60;;;3.47;;
17424;SDS011;8830;50.978;5.058;2022-08-30T09:07:13;8.55;;;4.05;;
17424;SDS011;8830;50.978;5.058;2022-08-30T09:09:47;6.10;;;3.20;;
17424;SDS011;8830;50.978;5.058;2022-08-30T09:12:15;3.83;;;3.17;;
17424;SDS011;8830;50.978;5.058;2022-08-30T09:14:47;4.47;;;3.47;;
17424;SDS011;8830;50.978;5.058;2022-08-30T09:17:18;4.03;;;3.00;;
17424;SDS011;8830;50.978;5.058;2022-08-30T09:19:56;4.55;;;3.58;;
17424;SDS011;8830;50.978;5.058;2022-08-30T09:22:29;5.97;;;3.15;;
17424;SDS011;8830;50.978;5.058;2022-08-30T09:24:59;3.08;;;2.80;;
17424;SDS011;8830;50.978;5.058;2022-08-30T09:27:31;6.97;;;3.22;;
17424;SDS011;8830;50.978;5.058;2022-08-30T09:30:03;9.75;;;3.50;;
17424;SDS011;8830;50.978;5.058;2022-08-30T09:32:34;7.53;;;3.15;;
17424;SDS011;8830;50.978;5.058;2022-08-30T09:35:05;6.07;;;2.50;;
17424;SDS011;8830;50.978;5.058;2022-08-30T09:37:37;8.60;;;3.28;;
17424;SDS011;8830;50.978;5.058;2022-08-30T09:40:12;4.75;;;3.03;;
17424;SDS011;8830;50.978;5.058;2022-08-30T09:42:46;4.72;;;3.10;;
17424;SDS011;8830;50.978;5.058;2022-08-30T09:45:30;3.78;;;3.20;;
17424;SDS011;8830;50.978;5.058;2022-08-30T09:48:00;6.53;;;3.10;;
17424;SDS011;8830;50.978;5.058;2022-08-30T09:50:47;5.07;;;2.83;;
17424;SDS011;8830;50.978;5.058;2022-08-30T09:53:20;9.75;;;3.15;;
17424;SDS011;8830;50.978;5.058;2022-08-30T09:55:58;5.95;;;3.33;;
17424;SDS011;8830;50.978;5.058;2022-08-30T09:58:33;4.55;;;3.30;;
17424;SDS011;8830;50.978;5.058;2022-08-30T10:01:17;6.85;;;2.95;;
17424;SDS011;8830;50.978;5.058;2022-08-30T10:03:48;4.40;;;3.42;;
17424;SDS011;8830;50.978;5.058;2022-08-30T10:06:23;6.47;;;3.28;;
17424;SDS011;8830;50.978;5.058;2022-08-30T10:08:58;4.88;;;3.20;;
17424;SDS011;8830;50.978;5.058;2022-08-30T10:11:34;8.95;;;3.25;;
17424;SDS011;8830;50.978;5.058;2022-08-30T10:14:24;8.40;;;3.03;;
17424;SDS011;8830;50.978;5.058;2022-08-30T10:17:00;7.00;;;3.05;;
17424;SDS011;8830;50.978;5.058;2022-08-30T10:19:41;8.85;;;3.08;;
17424;SDS011;8830;50.978;5.058;2022-08-30T10:22:18;5.40;;;3.28;;
17424;SDS011;8830;50.978;5.058;2022-08-30T10:24:50;5.20;;;2.83;;
17424;SDS011;8830;50.978;5.058;2022-08-30T10:27:24;7.18;;;2.75;;
17424;SDS011;8830;50.978;5.058;2022-08-30T10:29:58;7.05;;;3.47;;
17424;SDS011;8830;50.978;5.058;2022-08-30T10:32:33;5.63;;;2.70;;
17424;SDS011;8830;50.978;5.058;2022-08-30T10:35:05;6.03;;;3.08;;
17424;SDS011;8830;50.978;5.058;2022-08-30T10:37:36;4.93;;;2.83;;
17424;SDS011;8830;50.978;5.058;2022-08-30T10:40:09;5.22;;;2.63;;
17424;SDS011;8830;50.978;5.058;2022-08-30T10:42:57;4.25;;;2.67;;
17424;SDS011;8830;50.978;5.058;2022-08-30T10:45:29;11.00;;;3.40;;
17424;SDS011;8830;50.978;5.058;2022-08-30T10:48:04;6.65;;;2.85;;
17424;SDS011;8830;50.978;5.058;2022-08-30T10:50:39;8.35;;;3.03;;
17424;SDS011;8830;50.978;5.058;2022-08-30T10:53:09;5.45;;;2.85;;
17424;SDS011;8830;50.978;5.058;2022-08-30T10:55:41;4.35;;;2.88;;
17424;SDS011;8830;50.978;5.058;2022-08-30T10:58:14;6.93;;;3.05;;
17424;SDS011;8830;50.978;5.058;2022-08-30T11:00:45;6.65;;;2.75;;
17424;SDS011;8830;50.978;5.058;2022-08-30T11:03:33;8.65;;;2.88;;
17424;SDS011;8830;50.978;5.058;2022-08-30T11:06:19;7.93;;;2.55;;
17424;SDS011;8830;50.978;5.058;2022-08-30T11:08:56;4.43;;;3.10;;
17424;SDS011;8830;50.978;5.058;2022-08-30T11:11:50;3.63;;;2.97;;
17424;SDS011;8830;50.978;5.058;2022-08-30T11:14:37;4.38;;;2.95;;
17424;SDS011;8830;50.978;5.058;2022-08-30T11:17:05;5.22;;;3.25;;
17424;SDS011;8830;50.978;5.058;2022-08-30T11:19:52;7.35;;;2.75;;
17424;SDS011;8830;50.978;5.058;2022-08-30T11:22:23;6.47;;;3.17;;
17424;SDS011;8830;50.978;5.058;2022-08-30T11:25:04;7.22;;;3.05;;
17424;SDS011;8830;50.978;5.058;2022-08-30T11:27:39;5.57;;;3.30;;
17424;SDS011;8830;50.978;5.058;2022-08-30T11:36:06;3.53;;;2.70;;
17424;SDS011;8830;50.978;5.058;2022-08-30T11:41:29;6.25;;;2.67;;
17424;SDS011;8830;50.978;5.058;2022-08-30T11:44:10;6.63;;;2.95;;
17424;SDS011;8830;50.978;5.058;2022-08-30T11:46:53;9.13;;;2.78;;
17424;SDS011;8830;50.978;5.058;2022-08-30T11:52:28;7.72;;;2.75;;
17424;SDS011;8830;50.978;5.058;2022-08-30T11:55:32;8.63;;;2.92;;
17424;SDS011;8830;50.978;5.058;2022-08-30T12:01:14;5.13;;;3.17;;
17424;SDS011;8830;50.978;5.058;2022-08-30T12:03:44;5.78;;;3.13;;
17424;SDS011;8830;50.978;5.058;2022-08-30T12:12:52;3.83;;;2.45;;
17424;SDS011;8830;50.978;5.058;2022-08-30T12:18:27;3.17;;;2.65;;
17424;SDS011;8830;50.978;5.058;2022-08-30T12:23:53;6.68;;;2.60;;
17424;SDS011;8830;50.978;5.058;2022-08-30T12:26:29;5.90;;;2.95;;
17424;SDS011;8830;50.978;5.058;2022-08-30T12:29:07;10.38;;;2.25;;
17424;SDS011;8830;50.978;5.058;2022-08-30T12:31:40;3.58;;;2.13;;
17424;SDS011;8830;50.978;5.058;2022-08-30T12:34:16;10.68;;;2.53;;
17424;SDS011;8830;50.978;5.058;2022-08-30T12:36:49;4.20;;;2.35;;
17424;SDS011;8830;50.978;5.058;2022-08-30T12:39:22;5.03;;;2.50;;
17424;SDS011;8830;50.978;5.058;2022-08-30T12:41:52;7.40;;;2.10;;
17424;SDS011;8830;50.978;5.058;2022-08-30T12:44:22;5.40;;;2.38;;
17424;SDS011;8830;50.978;5.058;2022-08-30T12:46:52;4.47;;;2.65;;
17424;SDS011;8830;50.978;5.058;2022-08-30T12:49:23;4.60;;;2.10;;
17424;SDS011;8830;50.978;5.058;2022-08-30T12:51:53;5.07;;;2.15;;
17424;SDS011;8830;50.978;5.058;2022-08-30T12:54:22;4.43;;;2.70;;
17424;SDS011;8830;50.978;5.058;2022-08-30T12:56:57;6.22;;;1.98;;
17424;SDS011;8830;50.978;5.058;2022-08-30T12:59:47;5.55;;;2.70;;
17424;SDS011;8830;50.978;5.058;2022-08-30T13:02:19;10.10;;;2.35;;
17424;SDS011;8830;50.978;5.058;2022-08-30T13:04:48;5.53;;;2.10;;
17424;SDS011;8830;50.978;5.058;2022-08-30T13:10:13;4.88;;;2.20;;
17424;SDS011;8830;50.978;5.058;2022-08-30T13:12:56;4.38;;;1.83;;
17424;SDS011;8830;50.978;5.058;2022-08-30T13:15:31;3.13;;;2.28;;
17424;SDS011;8830;50.978;5.058;2022-08-30T13:18:09;3.45;;;2.25;;
17424;SDS011;8830;50.978;5.058;2022-08-30T13:20:43;4.60;;;2.40;;
17424;SDS011;8830;50.978;5.058;2022-08-30T13:23:20;5.15;;;2.00;;
17424;SDS011;8830;50.978;5.058;2022-08-30T13:25:48;4.75;;;2.17;;
17424;SDS011;8830;50.978;5.058;2022-08-30T13:28:15;3.60;;;2.05;;
17424;SDS011;8830;50.978;5.058;2022-08-30T13:30:44;8.38;;;2.47;;
17424;SDS011;8830;50.978;5.058;2022-08-30T13:33:11;8.05;;;2.20;;
17424;SDS011;8830;50.978;5.058;2022-08-30T13:35:38;3.95;;;2.08;;
17424;SDS011;8830;50.978;5.058;2022-08-30T13:38:06;2.55;;;2.10;;
17424;SDS011;8830;50.978;5.058;2022-08-30T13:40:34;5.40;;;2.03;;
17424;SDS011;8830;50.978;5.058;2022-08-30T13:43:01;4.13;;;2.15;;
17424;SDS011;8830;50.978;5.058;2022-08-30T13:45:29;5.45;;;2.15;;
17424;SDS011;8830;50.978;5.058;2022-08-30T13:47:58;2.70;;;2.15;;
17424;SDS011;8830;50.978;5.058;2022-08-30T13:50:26;3.47;;;2.50;;
17424;SDS011;8830;50.978;5.058;2022-08-30T13:52:53;3.60;;;1.98;;
17424;SDS011;8830;50.978;5.058;2022-08-30T13:55:20;3.80;;;1.90;;
17424;SDS011;8830;50.978;5.058;2022-08-30T13:57:47;2.67;;;2.00;;
17424;SDS011;8830;50.978;5.058;2022-08-30T14:00:15;5.80;;;2.10;;
17424;SDS011;8830;50.978;5.058;2022-08-30T14:02:46;4.30;;;2.15;;
17424;SDS011;8830;50.978;5.058;2022-08-30T14:05:15;9.48;;;2.30;;
17424;SDS011;8830;50.978;5.058;2022-08-30T14:07:42;2.70;;;1.92;;
17424;SDS011;8830;50.978;5.058;2022-08-30T14:10:09;5.25;;;2.33;;
17424;SDS011;8830;50.978;5.058;2022-08-30T14:12:37;2.58;;;2.08;;
17424;SDS011;8830;50.978;5.058;2022-08-30T14:15:05;5.13;;;2.25;;
17424;SDS011;8830;50.978;5.058;2022-08-30T14:17:33;4.80;;;1.95;;
17424;SDS011;8830;50.978;5.058;2022-08-30T14:20:00;3.53;;;1.92;;
17424;SDS011;8830;50.978;5.058;2022-08-30T14:22:30;3.38;;;2.50;;
17424;SDS011;8830;50.978;5.058;2022-08-30T14:24:57;6.05;;;2.30;;
17424;SDS011;8830;50.978;5.058;2022-08-30T14:27:25;5.57;;;2.20;;
17424;SDS011;8830;50.978;5.058;2022-08-30T14:29:52;2.63;;;2.00;;
17424;SDS011;8830;50.978;5.058;2022-08-30T14:32:20;3.13;;;1.60;;
17424;SDS011;8830;50.978;5.058;2022-08-30T14:34:49;6.05;;;2.45;;
17424;SDS011;8830;50.978;5.058;2022-08-30T14:37:16;2.95;;;2.10;;
17424;SDS011;8830;50.978;5.058;2022-08-30T14:39:50;5.10;;;1.80;;
17424;SDS011;8830;50.978;5.058;2022-08-30T14:42:17;3.70;;;2.15;;
17424;SDS011;8830;50.978;5.058;2022-08-30T14:44:45;3.47;;;2.15;;
17424;SDS011;8830;50.978;5.058;2022-08-30T14:47:12;6.45;;;2.35;;
17424;SDS011;8830;50.978;5.058;2022-08-30T14:49:39;5.00;;;2.00;;
17424;SDS011;8830;50.978;5.058;2022-08-30T14:52:06;5.65;;;1.85;;
17424;SDS011;8830;50.978;5.058;2022-08-30T14:54:33;6.22;;;1.77;;
17424;SDS011;8830;50.978;5.058;2022-08-30T14:57:01;2.97;;;2.17;;
17424;SDS011;8830;50.978;5.058;2022-08-30T14:59:29;3.60;;;1.98;;
17424;SDS011;8830;50.978;5.058;2022-08-30T15:01:56;2.65;;;2.03;;
17424;SDS011;8830;50.978;5.058;2022-08-30T15:04:24;4.55;;;1.80;;
17424;SDS011;8830;50.978;5.058;2022-08-30T15:06:52;4.50;;;1.50;;
17424;SDS011;8830;50.978;5.058;2022-08-30T15:09:22;6.63;;;1.88;;
17424;SDS011;8830;50.978;5.058;2022-08-30T15:11:50;8.50;;;1.73;;
17424;SDS011;8830;50.978;5.058;2022-08-30T15:14:20;7.05;;;1.95;;
17424;SDS011;8830;50.978;5.058;2022-08-30T15:16:48;10.50;;;1.95;;
17424;SDS011;8830;50.978;5.058;2022-08-30T15:19:18;6.20;;;1.60;;
17424;SDS011;8830;50.978;5.058;2022-08-30T15:21:47;5.20;;;1.77;;
17424;SDS011;8830;50.978;5.058;2022-08-30T15:24:16;7.53;;;1.83;;
17424;SDS011;8830;50.978;5.058;2022-08-30T15:26:46;2.03;;;1.63;;
17424;SDS011;8830;50.978;5.058;2022-08-30T15:29:15;7.40;;;1.80;;
17424;SDS011;8830;50.978;5.058;2022-08-30T15:31:46;11.07;;;1.60;;
17424;SDS011;8830;50.978;5.058;2022-08-30T15:34:15;8.70;;;2.00;;
17424;SDS011;8830;50.978;5.058;2022-08-30T15:36:44;3.90;;;1.50;;
17424;SDS011;8830;50.978;5.058;2022-08-30T15:39:12;2.38;;;1.70;;
17424;SDS011;8830;50.978;5.058;2022-08-30T15:41:40;6.20;;;1.55;;
17424;SDS011;8830;50.978;5.058;2022-08-30T15:44:10;3.00;;;1.55;;
17424;SDS011;8830;50.978;5.058;2022-08-30T15:46:38;2.25;;;1.45;;
17424;SDS011;8830;50.978;5.058;2022-08-30T15:49:09;7.65;;;1.90;;
17424;SDS011;8830;50.978;5.058;2022-08-30T15:51:43;5.13;;;1.67;;
17424;SDS011;8830;50.978;5.058;2022-08-30T15:54:15;3.47;;;1.60;;